Latest Coastal Weather Observations for Flinders Reef

IDQ60701

Issued at 1:32 am EST Tuesday 28 April 2015 (issued every 10 minutes, with the page automatically refreshed every 10 minutes)

About coastal observations | Map of coastal stations | Coastal observations for QLD | Marine services | Other Formats
Station Details ID: 200783 Name: FLINDERS REEF Lat: -17.72 Lon: 148.45 Height: 2.6 m
Data from the previous 72 hours. | See also: Recent months at Flinders Reef
Date/Time
EST
Temp

°C
Wind Pressure Rain
since 9am
mm
Weather Cloud Vis
km
Sea
Height
m
Swell
Dir
 
Speed
knots
Gust
knots
hPa Trend Height
m
Period
s
Dir
28/01:30am - SE 17 21 1015.8 - - - - - - - - -
28/01:24am - SE 17 18 1015.8 - - - - - - - - -
28/01:00am - SE 16 20 1016.2 - - - - - - - - -
28/12:30am - SE 16 19 1016.6 - - - - - - - - -
28/12:24am - SE 16 - 1016.6 - - - - - - - - -
28/12:00am - SE 17 19 1017.1 - - - - - - - - -
 
Date/Time
EST
Temp

°C
Wind Pressure Rain
since 9am
mm
Weather Cloud Vis
km
Sea
Height
m
Swell
Dir
 
Speed
knots
Gust
knots
hPa Trend Height
m
Period
s
Dir
27/11:30pm - SE 15 19 1017.3 - - - - - - - - -
27/11:24pm - SE 15 - 1017.3 - - - - - - - - -
27/11:00pm - SE 16 22 1017.4 - - - - - - - - -
27/10:30pm - SE 16 19 1017.5 - - - - - - - - -
27/10:24pm - SE 17 - 1017.4 - - - - - - - - -
27/10:00pm - SE 16 19 1017.6 - - - - - - - - -
27/09:30pm - SSE 17 21 1017.4 - - - - - - - - -
27/09:24pm - SSE 18 - 1017.3 - - - - - - - - -
27/09:00pm - SSE 16 18 1017.3 - - - - - - - - -
27/08:30pm - SSE 17 21 1017.0 - - - - - - - - -
27/08:24pm - SSE 17 - 1016.8 - - - - - - - - -
27/08:00pm - SSE 16 20 1016.6 - - - - - - - - -
27/07:30pm - SSE 18 22 1016.2 - - - - - - - - -
27/07:24pm - SSE 18 - 1016.0 - - - - - - - - -
27/07:00pm - SSE 19 23 1015.8 - - - - - - - - -
27/06:30pm - SSE 18 23 1015.5 - - - - - - - - -
27/06:24pm - SSE 18 - 1015.3 - - - - - - - - -
27/06:00pm - SSE 18 22 1015.3 - - - - - - - - -
27/05:30pm - SE 18 21 1015.1 - - - - - - - - -
27/05:24pm - SE 18 - 1015.0 - - - - - - - - -
27/05:00pm - SE 19 22 1014.8 - - - - - - - - -
27/04:30pm - SE 20 23 1014.5 - - - - - - - - -
27/04:24pm - SSE 20 - 1014.4 - - - - - - - - -
27/04:00pm - SE 20 25 1014.3 - - - - - - - - -
27/03:30pm - SE 21 25 1014.0 - - - - - - - - -
27/03:24pm - SE 21 - 1013.9 - - - - - - - - -
27/03:00pm - SE 20 23 1014.0 - - - - - - - - -
27/02:30pm - SE 17 21 1014.1 - - - - - - - - -
27/02:24pm - SE 17 - 1014.0 - - - - - - - - -
27/02:00pm - SE 18 22 1014.1 - - - - - - - - -
27/01:30pm - SE 18 21 1014.3 - - - - - - - - -
27/01:24pm - SE 18 - 1014.2 - - - - - - - - -
27/01:00pm - SE 18 21 1014.4 - - - - - - - - -
27/12:30pm - SE 18 22 1014.7 - - - - - - - - -
27/12:24pm - SE 18 - 1014.7 - - - - - - - - -
27/12:00pm - SE 18 23 1015.0 - - - - - - - - -
27/11:30am - SE 19 22 1015.4 - - - - - - - - -
27/11:24am - SE 19 - 1015.4 - - - - - - - - -
27/11:00am - SSE 20 23 1015.8 - - - - - - - - -
27/10:30am - SSE 21 24 1016.1 - - - - - - - - -
27/10:24am - SSE 21 - 1016.1 - - - - - - - - -
27/10:00am - SSE 20 24 1016.4 - - - - - - - - -
27/09:30am - SE 20 23 1016.5 - - - - - - - - -
27/09:24am - SE 20 - 1016.3 - - - - - - - - -
27/09:00am - SSE 19 22 1016.2 - - - - - - - - -
27/08:30am - SSE 20 24 1016.0 - - - - - - - - -
27/08:24am - SSE 20 - 1015.9 - - - - - - - - -
27/08:00am - SSE 20 23 1015.8 - - - - - - - - -
27/07:30am - SSE 20 24 1015.5 - - - - - - - - -
27/07:24am - SSE 19 - 1015.3 - - - - - - - - -
27/07:00am - SSE 19 23 1015.2 - - - - - - - - -
27/06:30am - SSE 17 22 1015.0 - - - - - - - - -
27/06:24am - SSE 17 - 1014.9 - - - - - - - - -
27/06:00am - SSE 16 19 1014.8 - - - - - - - - -
27/05:30am - SSE 16 19 1014.4 - - - - - - - - -
27/05:24am - SSE 15 - 1014.3 - - - - - - - - -
27/05:00am - SSE 16 19 1014.3 - - - - - - - - -
27/04:30am - SE 15 20 1014.1 - - - - - - - - -
27/04:24am - SE 16 - 1014.0 - - - - - - - - -
27/04:00am - SSE 16 19 1014.1 - - - - - - - - -
27/03:30am - SSE 16 19 1014.1 - - - - - - - - -
27/03:24am - SSE 16 - 1013.9 - - - - - - - - -
27/03:00am - SSE 16 19 1014.0 - - - - - - - - -
27/02:30am - SSE 16 19 1014.0 - - - - - - - - -
27/02:24am - SSE 15 - 1013.9 - - - - - - - - -
27/02:00am - SSE 16 19 1014.0 - - - - - - - - -
27/01:30am - SSE 16 18 1014.1 - - - - - - - - -
27/01:24am - SSE 16 - 1014.0 - - - - - - - - -
27/01:00am - SSE 16 19 1014.2 - - - - - - - - -
27/12:30am - SSE 16 19 1014.5 - - - - - - - - -
27/12:24am - SSE 16 - 1014.5 - - - - - - - - -
27/12:00am - SSE 15 17 1014.8 - - - - - - - - -
 
Date/Time
EST
Temp

°C
Wind Pressure Rain
since 9am
mm
Weather Cloud Vis
km
Sea
Height
m
Swell
Dir
 
Speed
knots
Gust
knots
hPa Trend Height
m
Period
s
Dir
26/11:30pm - SSE 15 17 1015.2 - - - - - - - - -
26/11:24pm - SSE 15 - 1015.1 - - - - - - - - -
26/11:00pm - SSE 15 17 1015.2 - - - - - - - - -
26/10:30pm - SSE 14 17 1015.4 - - - - - - - - -
26/10:24pm - SSE 14 - 1015.3 - - - - - - - - -
26/10:00pm - SSE 15 18 1015.4 - - - - - - - - -
26/09:30pm - SSE 16 18 1015.3 - - - - - - - - -
26/09:24pm - SSE 15 - 1015.2 - - - - - - - - -
26/09:00pm - SSE 14 17 1015.2 - - - - - - - - -
26/08:30pm - SSE 15 19 1015.1 - - - - - - - - -
26/08:24pm - SSE 16 - 1014.9 - - - - - - - - -
26/08:00pm - SSE 16 19 1014.7 - - - - - - - - -
26/07:30pm - SSE 16 20 1014.4 - - - - - - - - -
26/07:24pm - SSE 16 - 1014.2 - - - - - - - - -
26/07:00pm - SSE 17 21 1014.0 - - - - - - - - -
26/06:30pm - SSE 17 20 1013.6 - - - - - - - - -
26/06:24pm - SSE 17 - 1013.4 - - - - - - - - -
26/06:00pm - SSE 17 21 1013.3 - - - - - - - - -
26/05:30pm - SSE 18 20 1013.1 - - - - - - - - -
26/05:24pm - SSE 18 - 1013.0 - - - - - - - - -
26/05:00pm - SSE 18 21 1012.8 - - - - - - - - -
26/04:30pm - SSE 19 22 1012.6 - - - - - - - - -
26/04:24pm - SSE 19 - 1012.4 - - - - - - - - -
26/04:00pm - SSE 19 21 1012.4 - - - - - - - - -
26/03:30pm - SSE 20 23 1012.2 - - - - - - - - -
26/03:24pm - SSE 20 - 1012.1 - - - - - - - - -
26/03:00pm - SSE 20 24 1012.2 - - - - - - - - -
26/02:30pm - SSE 21 25 1012.2 - - - - - - - - -
26/02:24pm - SSE 21 - 1012.1 - - - - - - - - -
26/02:00pm - SSE 20 23 1012.2 - - - - - - - - -
26/01:30pm - SSE 20 23 1012.4 - - - - - - - - -
26/01:24pm - SSE 21 - 1012.3 - - - - - - - - -
26/01:00pm - SSE 20 24 1012.5 - - - - - - - - -
26/12:24pm - S 19 - 1012.5 - - - - - - - - -
26/11:24am - S 18 - 1013.3 - - - - - - - - -
26/11:00am - S 20 23 1013.6 - - - - - - - - -
26/10:30am - S 20 22 1014.0 - - - - - - - - -
26/10:24am - S 20 - 1013.9 - - - - - - - - -
26/10:00am - S 20 22 1014.2 - - - - - - - - -
26/09:50am - S 19 21 1014.2 - - - - - - - - -
26/09:30am - S 8 10 1014.3 - - - - - - - - -
26/09:24am - S 9 - 1014.1 - - - - - - - - -
26/09:00am - S 9 11 1014.1 - - - - - - - - -
26/08:30am - S 8 10 1014.0 - - - - - - - - -
26/08:24am - S 8 - 1013.8 - - - - - - - - -
26/08:00am - SSW 8 10 1013.6 - - - - - - - - -
26/07:30am - SSW 7 9 1013.4 - - - - - - - - -
26/07:24am - SSW 8 - 1013.3 - - - - - - - - -
26/07:00am - SW 8 9 1013.3 - - - - - - - - -
26/06:30am - SW 7 9 1012.9 - - - - - - - - -
26/06:24am - SW 8 - 1012.7 - - - - - - - - -
26/06:00am - SW 7 9 1012.4 - - - - - - - - -
26/05:30am - SW 8 10 1012.0 - - - - - - - - -
26/05:24am - SW 8 - 1011.8 - - - - - - - - -
26/05:00am - SW 8 10 1011.8 - - - - - - - - -
26/04:30am - SW 5 6 1011.5 - - - - - - - - -
26/04:24am - SW 5 - 1011.4 - - - - - - - - -
26/04:00am - SW 5 7 1011.2 - - - - - - - - -
26/03:30am - SW 6 7 1011.2 - - - - - - - - -
26/03:24am - SW 6 - 1011.1 - - - - - - - - -
26/03:00am - SW 6 7 1011.2 - - - - - - - - -
26/02:30am - SW 5 6 1011.2 - - - - - - - - -
26/02:24am - SW 5 - 1011.1 - - - - - - - - -
26/02:00am - SW 4 5 1011.5 - - - - - - - - -
26/01:30am - SW 3 5 1011.6 - - - - - - - - -
26/01:24am - SW 4 - 1011.6 - - - - - - - - -
26/01:00am - SW 4 6 1011.9 - - - - - - - - -
26/12:30am - CALM 0 0 1012.2 - - - - - - - - -
26/12:24am - CALM 0 - 1012.1 - - - - - - - - -
26/12:00am - CALM 0 0 1012.4 - - - - - - - - -
 
Date/Time
EST
Temp

°C
Wind Pressure Rain
since 9am
mm
Weather Cloud Vis
km
Sea
Height
m
Swell
Dir
 
Speed
knots
Gust
knots
hPa Trend Height
m
Period
s
Dir
25/11:30pm - CALM 0 0 1012.4 - - - - - - - - -
25/11:24pm - CALM 0 - 1012.4 - - - - - - - - -
25/11:00pm - CALM 0 0 1012.6 - - - - - - - - -
25/10:30pm - CALM 0 0 1012.9 - - - - - - - - -
25/10:24pm - CALM 0 - 1012.8 - - - - - - - - -
25/10:00pm - CALM 0 0 1013.0 - - - - - - - - -
25/09:30pm - SW 3 4 1013.0 - - - - - - - - -
25/09:24pm - SW 3 - 1013.0 - - - - - - - - -
25/09:00pm - SW 4 5 1013.2 - - - - - - - - -
25/08:30pm - SW 5 6 1013.0 - - - - - - - - -
25/08:24pm - SW 5 - 1012.9 - - - - - - - - -
25/08:00pm - SW 6 7 1012.7 - - - - - - - - -
25/07:30pm - SW 6 8 1012.4 - - - - - - - - -
25/07:24pm - SW 7 - 1012.2 - - - - - - - - -
25/07:00pm - SW 6 8 1012.0 - - - - - - - - -
25/06:30pm - SW 6 8 1011.5 - - - - - - - - -
25/06:24pm - SW 6 - 1011.4 - - - - - - - - -
25/06:00pm - SW 6 7 1011.5 - - - - - - - - -
25/05:30pm - SW 7 8 1011.3 - - - - - - - - -
25/05:24pm - SW 7 - 1011.2 - - - - - - - - -
25/05:00pm - SW 7 10 1010.9 - - - - - - - - -
25/04:30pm - SW 8 10 1010.6 - - - - - - - - -
25/04:24pm - SW 8 - 1010.4 - - - - - - - - -
25/04:00pm - SW 8 10 1010.4 - - - - - - - - -
25/03:30pm - SW 7 9 1010.1 - - - - - - - - -
25/03:24pm - SW 7 - 1010.0 - - - - - - - - -
25/03:00pm - SW 7 9 1010.2 - - - - - - - - -
25/02:30pm - SW 8 10 1010.2 - - - - - - - - -
25/02:24pm - SW 8 - 1010.1 - - - - - - - - -
25/02:00pm - SW 7 9 1010.4 - - - - - - - - -
25/01:30pm - SW 7 8 1010.5 - - - - - - - - -
25/01:24pm - SW 7 - 1010.5 - - - - - - - - -
25/01:00pm - SW 6 8 1010.7 - - - - - - - - -
25/12:30pm - SSE 7 8 1010.9 - - - - - - - - -
25/12:24pm - SE 6 - 1010.9 - - - - - - - - -
25/12:00pm - SE 6 8 1011.1 - - - - - - - - -
25/11:30am - SE 6 7 1011.5 - - - - - - - - -
25/11:24am - SE 6 - 1011.4 - - - - - - - - -
25/11:00am - SE 6 8 1011.8 - - - - - - - - -
25/10:30am - SE 6 8 1012.0 - - - - - - - - -
25/10:24am - SE 6 - 1012.1 - - - - - - - - -
25/10:00am - ESE 5 8 1012.4 - - - - - - - - -
25/09:30am - ESE 6 7 1012.5 - - - - - - - - -
25/09:24am - ESE 5 - 1012.4 - - - - - - - - -
25/09:00am - ESE 6 8 1012.4 - - - - - - - - -
25/08:30am - ESE 6 8 1012.2 - - - - - - - - -
25/08:24am - ESE 6 - 1012.0 - - - - - - - - -
25/08:00am - ESE 6 7 1012.0 - - - - - - - - -
25/07:30am - ESE 5 7 1011.6 - - - - - - - - -
25/07:24am - ESE 5 - 1011.4 - - - - - - - - -
25/07:00am - ESE 6 7 1011.3 - - - - - - - - -
25/06:30am - ESE 5 8 1011.0 - - - - - - - - -
25/06:24am - ESE 5 - 1010.9 - - - - - - - - -
25/06:00am - ESE 6 7 1010.8 - - - - - - - - -
25/05:30am - SE 6 8 1010.4 - - - - - - - - -
25/05:24am - SE 6 - 1010.3 - - - - - - - - -
25/05:00am - SE 6 8 1010.3 - - - - - - - - -
25/04:30am - SE 7 8 1010.3 - - - - - - - - -
25/04:24am - SE 7 - 1010.2 - - - - - - - - -
25/04:00am - SE 7 9 1010.1 - - - - - - - - -
25/03:30am - SE 8 9 1010.0 - - - - - - - - -
25/03:24am - SE 7 - 1009.9 - - - - - - - - -
25/03:00am - SE 8 10 1010.0 - - - - - - - - -
25/02:30am - SE 7 9 1010.2 - - - - - - - - -
25/02:24am - SE 7 - 1010.1 - - - - - - - - -
25/02:00am - SSE 7 9 1010.2 - - - - - - - - -

Other Formats:

Comma delimited format used in spreadsheet applications
http://www.bom.gov.au/fwo/IDQ60701/IDQ60701.94290.axf

JavaScript Object Notation format (JSON) in row-major order
http://www.bom.gov.au/fwo/IDQ60701/IDQ60701.94290.json